createdAt,value
2023-05-19T00:00:24.318Z,1010.1
2023-05-19T00:01:29.465Z,1010.1
2023-05-19T00:02:39.035Z,1010
2023-05-19T00:03:46.204Z,1010
2023-05-19T00:05:33.817Z,1010
2023-05-19T00:06:57.679Z,1010
2023-05-19T00:08:01.913Z,1010
2023-05-19T00:09:10.755Z,1010
2023-05-19T00:10:14.143Z,1010
2023-05-19T00:11:36.712Z,1010
2023-05-19T00:12:55.979Z,1009.9
2023-05-19T00:14:08.677Z,1010
2023-05-19T00:16:07.776Z,1010
2023-05-19T00:17:14.592Z,1010
2023-05-19T00:18:39.684Z,1010
2023-05-19T00:19:43.909Z,1010
2023-05-19T00:20:52.760Z,1010
2023-05-19T00:22:22.664Z,1010
2023-05-19T00:23:31.779Z,1010
2023-05-19T00:24:43.432Z,1010
2023-05-19T00:25:44.573Z,1010
2023-05-19T00:26:58.999Z,1010
2023-05-19T00:28:05.791Z,1010
2023-05-19T00:29:28.187Z,1010
2023-05-19T00:30:29.624Z,1010.1
2023-05-19T00:31:40.112Z,1010.1
2023-05-19T00:32:46.678Z,1010
2023-05-19T00:33:55.131Z,1010
2023-05-19T00:35:01.483Z,1010
2023-05-19T00:36:04.965Z,1010
2023-05-19T00:37:16.564Z,1010
2023-05-19T00:38:28.783Z,1010
2023-05-19T00:39:42.253Z,1010
2023-05-19T00:41:04.206Z,1010
2023-05-19T00:42:27.467Z,1010
2023-05-19T00:44:51.348Z,1010.1
2023-05-19T00:47:22.745Z,1010
2023-05-19T00:48:27.023Z,1010
2023-05-19T00:49:43.089Z,1010
2023-05-19T00:50:47.360Z,1010.1
2023-05-19T00:52:04.707Z,1010.1
2023-05-19T00:53:12.052Z,1010.1
2023-05-19T00:54:18.465Z,1010.1
2023-05-19T00:55:22.535Z,1010.1
2023-05-19T00:56:29.578Z,1010.1
2023-05-19T00:57:35.633Z,1010.1
2023-05-19T00:58:41.598Z,1010.1
2023-05-19T00:59:51.468Z,1010.1
2023-05-19T01:01:11.262Z,1010.1
2023-05-19T01:02:23.146Z,1010.1
2023-05-19T01:04:59.916Z,1010.1
2023-05-19T01:06:03.789Z,1010.1
2023-05-19T01:07:07.702Z,1010.1
2023-05-19T01:08:23.987Z,1010.1
2023-05-19T01:09:32.473Z,1010.1
2023-05-19T01:10:34.012Z,1010.1
2023-05-19T01:11:40.524Z,1010
2023-05-19T01:12:41.664Z,1010.1
2023-05-19T01:13:49.235Z,1010
2023-05-19T01:15:09.874Z,1010
2023-05-19T01:16:16.427Z,1010
2023-05-19T01:17:17.755Z,1010
2023-05-19T01:18:50.375Z,1010
2023-05-19T01:19:51.642Z,1010
2023-05-19T01:20:58.441Z,1010
2023-05-19T01:22:12.646Z,1010
2023-05-19T01:23:20.383Z,1010
2023-05-19T01:24:48.126Z,1010
2023-05-19T01:25:52.201Z,1010
2023-05-19T01:27:00.497Z,1010
2023-05-19T01:28:11.289Z,1010
2023-05-19T01:29:15.071Z,1010
2023-05-19T01:30:26.417Z,1010
2023-05-19T01:31:27.700Z,1010
2023-05-19T01:33:05.012Z,1010
2023-05-19T01:34:14.941Z,1010
2023-05-19T01:35:27.084Z,1010
2023-05-19T01:36:35.799Z,1010
2023-05-19T01:39:57.022Z,1010
2023-05-19T01:41:13.536Z,1010
2023-05-19T01:42:25.088Z,1010
2023-05-19T01:43:49.551Z,1010
2023-05-19T01:50:02.972Z,1010
2023-05-19T01:51:18.389Z,1010
2023-05-19T01:52:42.308Z,1010
2023-05-19T01:53:51.232Z,1010
2023-05-19T01:55:01.819Z,1010
2023-05-19T01:56:07.938Z,1010
2023-05-19T01:57:25.998Z,1010
2023-05-19T01:58:27.215Z,1010.1
2023-05-19T01:59:36.604Z,1010.1
2023-05-19T02:02:11.572Z,1010.1
2023-05-19T02:03:20.448Z,1010.1
2023-05-19T02:04:34.380Z,1010.1
2023-05-19T02:05:42.194Z,1010.1
2023-05-19T02:07:00.296Z,1010.1
2023-05-19T02:08:16.696Z,1010.1
2023-05-19T02:11:25.172Z,1010.1
2023-05-19T02:12:39.672Z,1010.1
2023-05-19T02:13:40.978Z,1010.1
2023-05-19T02:16:21.870Z,1010
2023-05-19T02:17:34.934Z,1010
2023-05-19T02:18:43.382Z,1010
2023-05-19T02:20:58.093Z,1010.1
2023-05-19T02:22:04.781Z,1010.1
2023-05-19T02:23:20.624Z,1010
2023-05-19T02:25:40.824Z,1010
2023-05-19T02:26:53.850Z,1010
2023-05-19T02:29:09.622Z,1010
2023-05-19T02:30:29.371Z,1010
2023-05-19T02:31:43.863Z,1010
2023-05-19T02:32:58.707Z,1010
2023-05-19T02:34:08.244Z,1010
2023-05-19T02:35:12.176Z,1010
2023-05-19T02:36:26.912Z,1010
2023-05-19T02:37:29.387Z,1010
2023-05-19T02:38:38.293Z,1010
2023-05-19T02:39:52.689Z,1010
2023-05-19T02:41:06.479Z,1010
2023-05-19T02:42:35.883Z,1010
2023-05-19T02:43:44.426Z,1010
2023-05-19T02:44:59.940Z,1010
2023-05-19T03:26:35.766Z,1009.9
2023-05-19T03:27:45.550Z,1009.9
2023-05-19T03:38:22.681Z,1009.9
2023-05-19T03:39:34.265Z,1009.9
2023-05-19T03:41:01.628Z,1009.9
2023-05-19T03:42:41.182Z,1009.9
2023-05-19T03:43:49.949Z,1009.9
2023-05-19T03:45:00.383Z,1009.9
2023-05-19T03:47:20.524Z,1009.9
2023-05-19T03:48:34.803Z,1009.9
2023-05-19T03:49:40.958Z,1009.9
2023-05-19T05:09:47.888Z,1010.1
2023-05-19T05:10:54.907Z,1010.1
2023-05-19T05:14:32.372Z,1010.1
2023-05-19T05:16:01.840Z,1010.1
2023-05-19T05:17:10.762Z,1010.1
2023-05-19T05:47:31.384Z,1010.2
2023-05-19T05:48:41.657Z,1010.1
2023-05-19T05:49:42.799Z,1010.2
2023-05-19T05:50:46.648Z,1010.1
2023-05-19T05:52:06.079Z,1010.2
2023-05-19T05:53:13.099Z,1010.2
2023-05-19T05:54:14.299Z,1010.2
2023-05-19T05:55:20.926Z,1010.2
2023-05-19T05:56:22.110Z,1010.2
2023-05-19T05:57:23.313Z,1010.1
2023-05-19T05:58:24.505Z,1010.1
2023-05-19T05:59:25.697Z,1010.1
2023-05-19T06:00:26.854Z,1010.2
2023-05-19T06:01:30.549Z,1010.2
2023-05-19T06:02:32.307Z,1010.2
2023-05-19T06:03:33.961Z,1010.2
2023-05-19T06:04:42.539Z,1010.2
2023-05-19T06:05:43.761Z,1010.2
2023-05-19T06:06:45.069Z,1010.2
2023-05-19T06:07:46.237Z,1010.2
2023-05-19T06:08:47.426Z,1010.2
2023-05-19T06:09:48.603Z,1010.2
2023-05-19T06:10:55.099Z,1010.2
2023-05-19T06:11:56.295Z,1010.2
2023-05-19T06:12:57.451Z,1010.2
2023-05-19T06:13:58.673Z,1010.2
2023-05-19T06:14:59.848Z,1010.2
2023-05-19T06:16:02.547Z,1010.2
2023-05-19T06:17:03.912Z,1010.2
2023-05-19T06:18:05.200Z,1010.2
2023-05-19T06:19:06.532Z,1010.2
2023-05-19T06:20:07.711Z,1010.2
2023-05-19T06:21:08.926Z,1010.2
2023-05-19T06:22:10.092Z,1010.2
2023-05-19T06:23:16.030Z,1010.2
2023-05-19T06:24:17.223Z,1010.2
2023-05-19T06:25:18.374Z,1010.2
2023-05-19T06:26:19.545Z,1010.2
2023-05-19T06:27:22.967Z,1010.2
2023-05-19T06:28:24.148Z,1010.2
2023-05-19T06:29:25.343Z,1010.2
2023-05-19T06:30:26.466Z,1010.2
2023-05-19T06:31:30.388Z,1010.2
2023-05-19T06:32:31.637Z,1010.2
2023-05-19T06:33:35.410Z,1010.2
2023-05-19T06:34:36.632Z,1010.2
2023-05-19T06:35:37.858Z,1010.2
2023-05-19T06:36:41.811Z,1010.2
2023-05-19T06:37:48.522Z,1010.2
2023-05-19T06:38:52.512Z,1010.1
2023-05-19T06:39:57.297Z,1010.1
2023-05-19T06:40:58.476Z,1010.1
2023-05-19T06:41:59.650Z,1010.1
2023-05-19T06:43:05.902Z,1010.1
2023-05-19T06:44:12.246Z,1010.1
2023-05-19T06:45:18.358Z,1010.1
2023-05-19T06:46:22.299Z,1010.1
2023-05-19T06:47:29.172Z,1010.2
2023-05-19T06:49:39.580Z,1010.2
2023-05-19T06:50:40.864Z,1010.2
2023-05-19T06:51:44.172Z,1010.2
2023-05-19T06:52:50.993Z,1010.2
2023-05-19T06:53:52.168Z,1010.2
2023-05-19T06:54:56.327Z,1010.2
2023-05-19T06:56:00.598Z,1010.2
2023-05-19T06:57:01.812Z,1010.2
2023-05-19T06:58:02.987Z,1010.2
2023-05-19T06:59:09.297Z,1010.2
2023-05-19T07:00:18.759Z,1010.2
2023-05-19T07:01:23.406Z,1010.2
2023-05-19T07:02:27.659Z,1010.2
2023-05-19T07:03:40.449Z,1010.2
2023-05-19T07:04:44.629Z,1010.2
2023-05-19T07:05:51.364Z,1010.2
2023-05-19T07:06:52.541Z,1010.2
2023-05-19T07:07:53.698Z,1010.2
2023-05-19T07:09:03.576Z,1010.2
2023-05-19T07:10:07.780Z,1010.2
2023-05-19T07:11:11.936Z,1010.2
2023-05-19T07:12:16.049Z,1010.2
2023-05-19T07:13:20.275Z,1010.2
2023-05-19T07:14:21.440Z,1010.2
2023-05-19T07:15:22.596Z,1010.2
2023-05-19T07:16:26.611Z,1010.2
2023-05-19T07:17:27.859Z,1010.1
2023-05-19T07:18:31.681Z,1010.2
2023-05-19T07:19:35.683Z,1010.1
2023-05-19T07:20:39.935Z,1010.2
2023-05-19T07:21:41.107Z,1010.1
2023-05-19T07:22:50.340Z,1010.1
2023-05-19T07:23:54.356Z,1010.1
2023-05-19T07:24:58.049Z,1010.1
2023-05-19T07:25:59.248Z,1010.1
2023-05-19T07:27:00.454Z,1010.1
2023-05-19T07:28:07.641Z,1010.1
2023-05-19T07:29:13.923Z,1010.1
2023-05-19T07:30:15.076Z,1010.1
2023-05-19T07:31:16.332Z,1010.1
2023-05-19T07:32:19.703Z,1010.1
2023-05-19T07:33:21.286Z,1010.1
2023-05-19T07:34:22.478Z,1010.1
2023-05-19T07:35:26.741Z,1010.1
2023-05-19T07:36:27.960Z,1010
2023-05-19T07:37:29.155Z,1010
2023-05-19T07:38:40.591Z,1010
2023-05-19T07:39:41.814Z,1010
2023-05-19T07:40:43.019Z,1010
2023-05-19T07:41:44.221Z,1010
2023-05-19T07:42:45.459Z,1010
2023-05-19T07:43:46.664Z,1010
2023-05-19T07:44:50.818Z,1010
2023-05-19T07:45:54.603Z,1010
2023-05-19T07:47:06.324Z,1010
2023-05-19T07:48:10.580Z,1010
2023-05-19T07:49:11.830Z,1010
2023-05-19T07:50:13.074Z,1010
2023-05-19T07:51:19.058Z,1010
2023-05-19T07:52:22.374Z,1010
2023-05-19T07:53:29.218Z,1009.9
2023-05-19T07:54:30.367Z,1010
2023-05-19T07:55:34.291Z,1010
2023-05-19T07:56:38.521Z,1010
2023-05-19T07:57:42.612Z,1010
2023-05-19T07:58:43.794Z,1010
2023-05-19T07:59:45.244Z,1010
2023-05-19T08:00:51.507Z,1010
2023-05-19T08:01:52.664Z,1010
2023-05-19T08:02:53.950Z,1010
2023-05-19T08:03:55.360Z,1010
2023-05-19T08:04:59.630Z,1010
2023-05-19T08:06:03.501Z,1010
2023-05-19T08:07:07.518Z,1010
2023-05-19T08:08:08.707Z,1009.9
2023-05-19T08:09:09.890Z,1009.9
2023-05-19T08:10:11.044Z,1010
2023-05-19T08:11:14.885Z,1009.9
2023-05-19T08:12:16.056Z,1009.9
2023-05-19T08:13:17.338Z,1009.9
2023-05-19T08:14:21.129Z,1009.9
2023-05-19T08:15:22.273Z,1009.9
2023-05-19T08:16:23.660Z,1009.9
2023-05-19T08:17:27.952Z,1009.9
2023-05-19T08:18:34.813Z,1009.8
2023-05-19T08:19:38.946Z,1009.8
2023-05-19T08:22:11.361Z,1009.8
2023-05-19T08:23:15.190Z,1009.8
2023-05-19T08:24:16.385Z,1009.8
2023-05-19T08:25:22.595Z,1009.8
2023-05-19T08:26:26.275Z,1009.7
2023-05-19T08:27:27.450Z,1009.7
2023-05-19T08:28:33.709Z,1009.7
2023-05-19T08:29:34.888Z,1009.6
2023-05-19T08:30:39.038Z,1009.6
2023-05-19T08:31:43.279Z,1009.7
2023-05-19T08:32:44.574Z,1009.7
2023-05-19T08:33:56.048Z,1009.6
2023-05-19T08:35:03.026Z,1009.6
2023-05-19T08:36:04.181Z,1009.6
2023-05-19T08:37:10.295Z,1009.6
2023-05-19T08:38:17.004Z,1009.6
2023-05-19T08:39:23.072Z,1009.6
2023-05-19T08:40:27.336Z,1009.6
2023-05-19T08:41:31.547Z,1009.6
2023-05-19T08:44:55.490Z,1009.5
2023-05-19T08:45:58.792Z,1009.5
2023-05-19T08:47:08.340Z,1009.5
2023-05-19T08:48:09.769Z,1009.5
2023-05-19T08:49:13.967Z,1009.5
2023-05-19T08:50:18.099Z,1009.5
2023-05-19T08:51:27.226Z,1009.4
2023-05-19T08:52:30.496Z,1009.4
2023-05-19T08:53:41.035Z,1009.4
2023-05-19T08:54:47.488Z,1009.4
2023-05-19T08:55:51.496Z,1009.4
2023-05-19T08:57:01.404Z,1009.3
2023-05-19T08:58:05.590Z,1009.3
2023-05-19T08:59:12.626Z,1009.3
2023-05-19T09:00:16.617Z,1009.2
2023-05-19T09:01:17.937Z,1009.2
2023-05-19T09:02:19.269Z,1009.3
2023-05-19T09:03:24.550Z,1009.3
2023-05-19T09:04:30.590Z,1009.3
2023-05-19T09:05:37.918Z,1009.3
2023-05-19T09:06:41.952Z,1009.3
2023-05-19T09:08:03.470Z,1009.3
2023-05-19T09:09:07.813Z,1009.3
2023-05-19T09:10:11.876Z,1009.3
2023-05-19T09:11:18.542Z,1009.2
2023-05-19T09:12:19.715Z,1009.2
2023-05-19T09:13:20.853Z,1009.2
2023-05-19T09:14:25.279Z,1009.2
2023-05-19T09:15:26.406Z,1009.3
2023-05-19T09:16:30.592Z,1009.3
2023-05-19T09:17:31.877Z,1009.2
2023-05-19T09:18:38.393Z,1009.2
2023-05-19T09:19:39.660Z,1009.2
2023-05-19T09:20:49.561Z,1009.2
2023-05-19T09:21:50.735Z,1009.2
2023-05-19T09:22:54.910Z,1009.2
2023-05-19T09:23:56.084Z,1009.2
2023-05-19T09:25:03.167Z,1009.2
2023-05-19T09:26:07.858Z,1009.2
2023-05-19T09:27:12.111Z,1009.2
2023-05-19T09:28:17.786Z,1009.2
2023-05-19T09:29:21.251Z,1009.2
2023-05-19T09:30:25.122Z,1009.2
2023-05-19T09:31:26.310Z,1009.2
2023-05-19T09:32:30.777Z,1009.2
2023-05-19T09:33:34.305Z,1009.1
2023-05-19T09:34:38.210Z,1009.1
2023-05-19T09:35:39.637Z,1009.2
2023-05-19T09:36:40.819Z,1009.1
2023-05-19T09:37:42.061Z,1009.1
2023-05-19T09:38:54.363Z,1009.2
2023-05-19T09:39:57.636Z,1009.1
2023-05-19T09:40:58.801Z,1009.1
2023-05-19T09:42:05.611Z,1009.1
2023-05-19T09:43:14.954Z,1009.1
2023-05-19T09:44:18.966Z,1009.1
2023-05-19T09:45:25.864Z,1009.1
2023-05-19T09:46:29.984Z,1009
2023-05-19T09:47:34.007Z,1009
2023-05-19T09:48:45.358Z,1008.9
2023-05-19T09:49:49.221Z,1008.9
2023-05-19T09:50:53.102Z,1008.9
2023-05-19T09:51:59.825Z,1008.9
2023-05-19T09:53:01.069Z,1008.9
2023-05-19T09:54:04.774Z,1008.9
2023-05-19T09:57:00.693Z,1008.9
2023-05-19T09:58:01.997Z,1008.8
2023-05-19T09:59:17.105Z,1008.8
2023-05-19T10:00:23.128Z,1008.9
2023-05-19T10:01:27.497Z,1008.8
2023-05-19T10:02:34.567Z,1008.8
2023-05-19T10:03:40.851Z,1008.8
2023-05-19T10:04:42.346Z,1008.8
2023-05-19T10:07:06.791Z,1008.9
2023-05-19T10:08:07.986Z,1008.8
2023-05-19T10:09:14.771Z,1008.8
2023-05-19T10:10:18.929Z,1008.8
2023-05-19T10:11:23.164Z,1008.8
2023-05-19T10:12:27.387Z,1008.8
2023-05-19T10:13:28.559Z,1008.8
2023-05-19T10:14:29.692Z,1008.8
2023-05-19T10:15:31.446Z,1008.7
2023-05-19T10:16:47.162Z,1008.7
2023-05-19T10:17:53.284Z,1008.7
2023-05-19T10:18:54.728Z,1008.6
2023-05-19T10:19:58.659Z,1008.6
2023-05-19T10:20:59.827Z,1008.6
2023-05-19T10:22:01.004Z,1008.6
2023-05-19T10:23:05.124Z,1008.6
2023-05-19T10:24:15.434Z,1008.6
2023-05-19T10:25:19.066Z,1008.6
2023-05-19T10:26:25.901Z,1008.5
2023-05-19T10:27:27.116Z,1008.5
2023-05-19T10:28:33.138Z,1008.5
2023-05-19T10:29:34.378Z,1008.5
2023-05-19T10:30:40.993Z,1008.5
2023-05-19T10:31:42.256Z,1008.5
2023-05-19T10:32:43.541Z,1008.4
2023-05-19T10:33:49.535Z,1008.5
2023-05-19T10:34:53.528Z,1008.5
2023-05-19T10:35:54.669Z,1008.5
2023-05-19T10:36:58.603Z,1008.5
2023-05-19T10:38:02.715Z,1008.5
2023-05-19T10:39:06.707Z,1008.5
2023-05-19T10:40:17.636Z,1008.5
2023-05-19T10:41:18.806Z,1008.5
2023-05-19T10:42:28.705Z,1008.5
2023-05-19T10:43:30.032Z,1008.5
2023-05-19T10:44:51.528Z,1008.4
2023-05-19T10:47:08.142Z,1008.4
2023-05-19T10:48:09.614Z,1008.4
2023-05-19T10:49:10.786Z,1008.3
2023-05-19T10:50:15.059Z,1008.3
2023-05-19T10:51:21.240Z,1008.3
2023-05-19T10:52:24.547Z,1008.3
2023-05-19T10:53:28.633Z,1008.3
2023-05-19T10:54:29.808Z,1008.3
2023-05-19T10:55:31.368Z,1008.2
2023-05-19T10:56:33.112Z,1008.2
2023-05-19T10:57:37.256Z,1008.2
2023-05-19T10:58:38.483Z,1008.3
2023-05-19T10:59:48.160Z,1008.3
2023-05-19T11:00:49.444Z,1008.2
2023-05-19T11:02:01.203Z,1008.2
2023-05-19T11:05:36.569Z,1008.3
2023-05-19T11:07:41.250Z,1008.3
2023-05-19T11:08:42.416Z,1008.3
2023-05-19T11:09:43.566Z,1008.3
2023-05-19T11:10:44.757Z,1008.3
2023-05-19T11:11:48.719Z,1008.2
2023-05-19T11:12:54.744Z,1008.2
2023-05-19T11:13:55.948Z,1008.2
2023-05-19T11:14:59.282Z,1008.2
2023-05-19T11:16:02.554Z,1008.2
2023-05-19T11:17:03.844Z,1008.2
2023-05-19T11:18:17.364Z,1008.2
2023-05-19T11:19:29.353Z,1008.2
2023-05-19T11:20:30.805Z,1008.2
2023-05-19T11:21:53.003Z,1008.2
2023-05-19T11:22:56.862Z,1008.2
2023-05-19T11:24:01.221Z,1008.2
2023-05-19T11:25:11.557Z,1008.1
2023-05-19T11:26:15.388Z,1008.1
2023-05-19T11:27:19.328Z,1008.1
2023-05-19T11:28:29.105Z,1008.1
2023-05-19T11:29:35.065Z,1008.1
2023-05-19T11:30:36.322Z,1008.1
2023-05-19T11:31:46.123Z,1008.1
2023-05-19T11:32:50.185Z,1008.1
2023-05-19T11:34:03.140Z,1008.1
2023-05-19T11:35:04.388Z,1008
2023-05-19T11:36:12.531Z,1008
2023-05-19T11:37:25.241Z,1008
2023-05-19T11:38:26.386Z,1008
2023-05-19T11:39:30.271Z,1008
2023-05-19T11:40:33.851Z,1008
2023-05-19T11:41:37.516Z,1008
2023-05-19T11:42:38.731Z,1008.1
2023-05-19T11:43:45.741Z,1008
2023-05-19T11:44:47.039Z,1008
2023-05-19T11:45:53.407Z,1008
2023-05-19T11:47:18.539Z,1008
2023-05-19T11:48:22.892Z,1008
2023-05-19T11:49:27.150Z,1007.9
2023-05-19T11:50:28.310Z,1007.9
2023-05-19T11:51:34.907Z,1007.9
2023-05-19T11:52:39.543Z,1007.9
2023-05-19T11:53:43.841Z,1007.8
2023-05-19T11:54:44.998Z,1007.9
2023-05-19T11:55:52.746Z,1007.8
2023-05-19T11:56:54.336Z,1007.9
2023-05-19T11:58:04.905Z,1007.9
2023-05-19T11:59:12.333Z,1007.8
2023-05-19T12:00:18.314Z,1007.8
2023-05-19T12:01:20.244Z,1007.9
2023-05-19T12:02:21.581Z,1007.8
2023-05-19T12:03:22.962Z,1007.9
2023-05-19T12:04:27.131Z,1007.8
2023-05-19T12:05:28.383Z,1007.8
2023-05-19T12:06:29.662Z,1007.8
2023-05-19T12:07:36.259Z,1007.8
2023-05-19T12:08:37.457Z,1007.8
2023-05-19T12:09:43.574Z,1007.7
2023-05-19T12:10:47.592Z,1007.8
2023-05-19T12:11:54.570Z,1007.7
2023-05-19T12:12:55.732Z,1007.8
2023-05-19T12:13:59.497Z,1007.7
2023-05-19T12:15:00.658Z,1007.8
2023-05-19T12:16:09.288Z,1007.8
2023-05-19T12:17:19.541Z,1007.8
2023-05-19T12:18:23.724Z,1007.8
2023-05-19T12:19:27.316Z,1007.8
2023-05-19T12:20:28.686Z,1007.8
2023-05-19T12:21:35.876Z,1007.8
2023-05-19T12:22:40.063Z,1007.8
2023-05-19T12:23:41.233Z,1007.8
2023-05-19T12:24:45.319Z,1007.7
2023-05-19T12:25:51.193Z,1007.7
2023-05-19T12:26:55.298Z,1007.7
2023-05-19T12:27:59.202Z,1007.7
2023-05-19T12:29:05.212Z,1007.7
2023-05-19T12:30:08.457Z,1007.7
2023-05-19T12:31:09.742Z,1007.7
2023-05-19T12:32:13.770Z,1007.8
2023-05-19T12:33:17.543Z,1007.7
2023-05-19T12:34:21.063Z,1007.8
2023-05-19T12:35:22.223Z,1007.7
2023-05-19T12:36:23.370Z,1007.7
2023-05-19T12:37:27.512Z,1007.7
2023-05-19T12:38:28.679Z,1007.7
2023-05-19T12:39:32.777Z,1007.7
2023-05-19T12:40:37.829Z,1007.6
2023-05-19T12:41:39.513Z,1007.6
2023-05-19T12:42:40.665Z,1007.5
2023-05-19T12:43:46.985Z,1007.6
2023-05-19T12:44:51.275Z,1007.6
2023-05-19T12:45:52.598Z,1007.6
2023-05-19T12:46:56.860Z,1007.6
2023-05-19T12:48:00.871Z,1007.6
2023-05-19T12:49:11.046Z,1007.6
2023-05-19T12:50:14.867Z,1007.6
2023-05-19T12:51:16.028Z,1007.6
2023-05-19T12:52:20.485Z,1007.6
2023-05-19T12:53:24.387Z,1007.6
2023-05-19T12:54:25.596Z,1007.6
2023-05-19T12:55:26.892Z,1007.6
2023-05-19T12:56:28.095Z,1007.6
2023-05-19T12:57:29.255Z,1007.6
2023-05-19T12:58:42.340Z,1007.6
2023-05-19T12:59:43.508Z,1007.5
2023-05-19T13:00:49.669Z,1007.5
2023-05-19T13:01:55.119Z,1007.5
2023-05-19T13:02:57.490Z,1007.5
2023-05-19T13:04:06.186Z,1007.5
2023-05-19T13:05:07.973Z,1007.5
2023-05-19T13:06:09.281Z,1007.5
2023-05-19T13:07:10.473Z,1007.5
2023-05-19T13:08:11.786Z,1007.5
2023-05-19T13:09:20.785Z,1007.5
2023-05-19T13:10:24.892Z,1007.5
2023-05-19T13:11:34.875Z,1007.5
2023-05-19T13:12:36.040Z,1007.5
2023-05-19T13:13:37.211Z,1007.5
2023-05-19T13:14:41.132Z,1007.5
2023-05-19T13:15:42.337Z,1007.5
2023-05-19T13:16:57.882Z,1007.5
2023-05-19T13:19:26.340Z,1007.5
2023-05-19T13:20:42.018Z,1007.5
2023-05-19T13:21:46.306Z,1007.4
2023-05-19T13:22:52.869Z,1007.5
2023-05-19T13:24:07.741Z,1007.5
2023-05-19T13:25:08.886Z,1007.5
2023-05-19T13:26:10.053Z,1007.4
2023-05-19T13:27:11.268Z,1007.4
2023-05-19T13:28:14.987Z,1007.4
2023-05-19T13:29:19.207Z,1007.4
2023-05-19T13:30:20.399Z,1007.3
2023-05-19T13:31:23.755Z,1007.4
2023-05-19T13:32:27.992Z,1007.4
2023-05-19T13:33:34.016Z,1007.4
2023-05-19T13:34:35.214Z,1007.4
2023-05-19T13:35:36.435Z,1007.4
2023-05-19T13:36:37.788Z,1007.4
2023-05-19T13:37:44.014Z,1007.4
2023-05-19T13:38:45.205Z,1007.4
2023-05-19T13:39:46.373Z,1007.4
2023-05-19T13:40:47.583Z,1007.4
2023-05-19T13:41:50.964Z,1007.4
2023-05-19T13:42:55.038Z,1007.4
2023-05-19T13:43:58.989Z,1007.3
2023-05-19T13:45:00.230Z,1007.3
2023-05-19T13:46:07.147Z,1007.3
2023-05-19T13:47:08.502Z,1007.3
2023-05-19T13:48:18.288Z,1007.3
2023-05-19T13:49:21.764Z,1007.2
2023-05-19T13:50:25.276Z,1007.3
2023-05-19T13:52:47.792Z,1007.2
2023-05-19T13:53:51.486Z,1007.2
2023-05-19T13:54:55.614Z,1007.2
2023-05-19T13:57:11.024Z,1007.2
2023-05-19T13:58:12.170Z,1007.2
2023-05-19T13:59:16.379Z,1007.2
2023-05-19T14:00:20.775Z,1007.2
2023-05-19T14:01:24.548Z,1007.2
2023-05-19T14:02:28.711Z,1007.2
2023-05-19T14:03:36.180Z,1007.3
2023-05-19T14:04:37.545Z,1007.2
2023-05-19T14:05:38.807Z,1007.2
2023-05-19T14:06:44.477Z,1007.2
2023-05-19T14:07:51.348Z,1007.2
2023-05-19T14:08:57.975Z,1007.1
2023-05-19T14:10:01.719Z,1007.1
2023-05-19T14:11:03.088Z,1007.1
2023-05-19T14:12:12.391Z,1007.1
2023-05-19T14:13:35.361Z,1007.1
2023-05-19T14:14:44.856Z,1007.1
2023-05-19T14:15:46.051Z,1007.2
2023-05-19T14:16:52.714Z,1007.2
2023-05-19T14:17:54.039Z,1007.1
2023-05-19T14:18:58.322Z,1007.1
2023-05-19T14:20:17.027Z,1007.2
2023-05-19T14:21:21.103Z,1007.1
2023-05-19T14:22:25.349Z,1007.1
2023-05-19T14:23:34.130Z,1007.1
2023-05-19T14:24:35.312Z,1007.1
2023-05-19T14:25:39.352Z,1007.1
2023-05-19T14:26:46.009Z,1007.1
2023-05-19T15:07:27.101Z,1007
2023-05-19T15:08:39.680Z,1007
2023-05-19T15:09:43.670Z,1007
2023-05-19T15:10:44.846Z,1007
2023-05-19T15:11:48.858Z,1007.1
2023-05-19T15:12:50.023Z,1007
2023-05-19T15:13:56.902Z,1007
2023-05-19T15:15:05.948Z,1007
2023-05-19T15:16:18.414Z,1007
2023-05-19T15:17:19.766Z,1007
2023-05-19T15:18:21.119Z,1007
2023-05-19T15:20:45.203Z,1007.1
2023-05-19T15:21:49.222Z,1007
2023-05-19T15:23:16.192Z,1007
2023-05-19T15:25:34.243Z,1007
2023-05-19T15:26:35.397Z,1007
2023-05-19T15:27:36.637Z,1007
2023-05-19T15:28:37.870Z,1007
2023-05-19T15:29:43.627Z,1006.9
2023-05-19T15:30:47.456Z,1006.9
2023-05-19T15:32:02.170Z,1006.9
2023-05-19T15:33:03.389Z,1006.9
2023-05-19T15:34:18.615Z,1007
2023-05-19T15:35:31.895Z,1006.9
2023-05-19T15:36:35.854Z,1007
2023-05-19T15:37:37.023Z,1007
2023-05-19T15:38:38.343Z,1007
2023-05-19T15:39:39.514Z,1007
2023-05-19T15:40:47.334Z,1007
2023-05-19T15:41:51.556Z,1007
2023-05-19T15:43:00.570Z,1007
2023-05-19T15:44:01.807Z,1007
2023-05-19T15:45:06.047Z,1007
2023-05-19T15:46:10.126Z,1007
2023-05-19T15:47:11.374Z,1007
2023-05-19T15:48:15.468Z,1007
2023-05-19T15:49:16.754Z,1007
2023-05-19T15:50:38.689Z,1007
2023-05-19T15:51:42.074Z,1006.9
2023-05-19T15:52:43.227Z,1007
2023-05-19T15:53:44.497Z,1007
2023-05-19T15:54:45.641Z,1007
2023-05-19T15:55:46.813Z,1007
2023-05-19T15:56:48.020Z,1007
2023-05-19T15:57:49.203Z,1006.9
2023-05-19T15:58:52.763Z,1006.9
2023-05-19T15:59:54.133Z,1006.9
2023-05-19T16:00:58.206Z,1006.9
2023-05-19T16:01:59.414Z,1006.9
2023-05-19T16:03:00.796Z,1006.9
2023-05-19T16:05:10.797Z,1006.8
2023-05-19T16:06:16.820Z,1006.8
2023-05-19T16:07:18.040Z,1006.8
2023-05-19T16:08:22.039Z,1006.8
2023-05-19T16:09:26.226Z,1006.8
2023-05-19T16:10:27.448Z,1006.8
2023-05-19T16:11:33.529Z,1006.8
2023-05-19T16:12:40.696Z,1006.8
2023-05-19T16:13:41.976Z,1006.8
2023-05-19T16:14:59.946Z,1006.8
2023-05-19T16:16:04.262Z,1006.8
2023-05-19T16:17:08.182Z,1006.8
2023-05-19T16:18:09.455Z,1006.8
2023-05-19T16:19:10.870Z,1006.8
2023-05-19T16:20:14.848Z,1006.8
2023-05-19T16:21:18.922Z,1006.8
2023-05-19T16:22:22.313Z,1006.8
2023-05-19T16:23:24.658Z,1006.8
2023-05-19T16:24:25.933Z,1006.8
2023-05-19T16:25:30.043Z,1006.7
2023-05-19T16:26:31.199Z,1006.7
2023-05-19T16:27:32.363Z,1006.7
2023-05-19T16:28:36.527Z,1006.7
2023-05-19T16:29:45.766Z,1006.8
2023-05-19T16:30:46.968Z,1006.7
2023-05-19T16:31:48.206Z,1006.7
2023-05-19T16:32:52.605Z,1006.7
2023-05-19T16:33:53.777Z,1006.7
2023-05-19T16:34:54.978Z,1006.7
2023-05-19T16:35:58.648Z,1006.7
2023-05-19T16:37:04.917Z,1006.7
2023-05-19T16:38:10.878Z,1006.7
2023-05-19T16:39:15.092Z,1006.7
2023-05-19T16:40:16.267Z,1006.7
2023-05-19T16:41:19.973Z,1006.7
2023-05-19T16:42:23.177Z,1006.7
2023-05-19T16:43:24.359Z,1006.8
2023-05-19T16:44:28.432Z,1006.8
2023-05-19T16:45:41.219Z,1006.8
2023-05-19T16:46:42.751Z,1006.8
2023-05-19T16:47:46.632Z,1006.8
2023-05-19T16:48:47.916Z,1006.8
2023-05-19T16:49:49.356Z,1006.8
2023-05-19T16:50:52.517Z,1006.8
2023-05-19T16:51:58.776Z,1006.7
2023-05-19T16:52:59.933Z,1006.7
2023-05-19T16:54:03.934Z,1006.7
2023-05-19T16:55:22.996Z,1006.7
2023-05-19T16:56:50.273Z,1006.7
2023-05-19T16:57:51.411Z,1006.7
2023-05-19T16:58:55.586Z,1006.7
2023-05-19T17:00:08.234Z,1006.7
2023-05-19T17:01:12.471Z,1006.7
2023-05-19T17:02:22.440Z,1006.7
2023-05-19T17:03:26.075Z,1006.7
2023-05-19T17:04:30.847Z,1006.7
2023-05-19T17:05:35.095Z,1006.7
2023-05-19T17:06:38.608Z,1006.6
2023-05-19T17:07:44.996Z,1006.7
2023-05-19T17:08:49.057Z,1006.6
2023-05-19T17:09:56.014Z,1006.6
2023-05-19T17:10:59.785Z,1006.6
2023-05-19T17:12:03.352Z,1006.6
2023-05-19T17:13:04.518Z,1006.6
2023-05-19T17:14:05.668Z,1006.6
2023-05-19T17:15:09.720Z,1006.5
2023-05-19T17:16:16.137Z,1006.5
2023-05-19T17:17:23.401Z,1006.5
2023-05-19T17:18:24.698Z,1006.5
2023-05-19T17:19:57.625Z,1006.5
2023-05-19T17:20:58.749Z,1006.5
2023-05-19T17:22:10.950Z,1006.5
2023-05-19T17:23:17.242Z,1006.5
2023-05-19T17:24:41.238Z,1006.5
2023-05-19T17:27:05.019Z,1006.6
2023-05-19T17:28:06.337Z,1006.6
2023-05-19T17:29:10.465Z,1006.6
2023-05-19T17:30:14.578Z,1006.6
2023-05-19T17:31:19.256Z,1006.6
2023-05-19T17:32:20.523Z,1006.7
2023-05-19T17:33:24.106Z,1006.6
2023-05-19T17:34:28.267Z,1006.7
2023-05-19T17:35:29.472Z,1006.7
2023-05-19T17:36:32.912Z,1006.7
2023-05-19T17:38:59.124Z,1006.7
2023-05-19T17:40:05.921Z,1006.7
2023-05-19T17:41:09.994Z,1006.7
2023-05-19T17:42:31.637Z,1006.7
2023-05-19T17:43:32.910Z,1006.7
2023-05-19T17:44:43.160Z,1006.7
2023-05-19T17:45:47.308Z,1006.7
2023-05-19T17:46:54.642Z,1006.7
2023-05-19T17:49:05.188Z,1006.7
2023-05-19T17:50:22.334Z,1006.7
2023-05-19T17:51:26.260Z,1006.7
2023-05-19T17:52:38.697Z,1006.7
2023-05-19T17:53:56.128Z,1006.7
2023-05-19T17:56:42.323Z,1006.7
2023-05-19T17:57:48.889Z,1006.7
2023-05-19T18:01:29.791Z,1006.7
2023-05-19T18:02:51.371Z,1006.7